createdAt,value
2023-03-13T00:01:46.003Z,15.79
2023-03-13T00:04:14.651Z,14.23
2023-03-13T00:06:43.176Z,13.23
2023-03-13T00:09:12.504Z,13.20
2023-03-13T00:11:40.650Z,12.44
2023-03-13T00:14:08.879Z,12.83
2023-03-13T00:16:38.132Z,11.57
2023-03-13T00:19:07.489Z,12.14
2023-03-13T00:21:37.858Z,12.89
2023-03-13T00:24:06.149Z,13.56
2023-03-13T00:26:34.205Z,13.85
2023-03-13T00:29:02.338Z,13.65
2023-03-13T00:31:31.353Z,14.23
2023-03-13T00:34:01.378Z,13.65
2023-03-13T00:36:31.435Z,13.64
2023-03-13T00:38:59.649Z,13.91
2023-03-13T00:41:30.052Z,14.38
2023-03-13T00:43:58.433Z,13.45
2023-03-13T00:46:28.154Z,12.71
2023-03-13T00:48:56.611Z,12.81
2023-03-13T00:51:27.174Z,12.27
2023-03-13T00:53:56.302Z,12.23
2023-03-13T00:56:24.303Z,12.32
2023-03-13T00:58:52.594Z,12.30
2023-03-13T01:01:23.207Z,12.66
2023-03-13T01:04:05.284Z,12.09
2023-03-13T01:06:35.215Z,12.34
2023-03-13T01:09:04.605Z,12.04
2023-03-13T01:11:35.240Z,12.06
2023-03-13T01:14:05.229Z,12.47
2023-03-13T01:16:34.413Z,12.40
2023-03-13T01:19:05.271Z,12.36
2023-03-13T01:21:33.504Z,12.35
2023-03-13T01:24:01.619Z,12.37
2023-03-13T01:26:29.791Z,12.19
2023-03-13T01:28:57.917Z,12.19
2023-03-13T01:31:30.193Z,12.35
2023-03-13T01:34:00.640Z,12.76
2023-03-13T01:36:28.658Z,13.28
2023-03-13T01:38:58.145Z,13.37
2023-03-13T01:41:28.629Z,14.41
2023-03-13T01:43:56.937Z,14.18
2023-03-13T01:46:29.358Z,13.75
2023-03-13T01:49:07.089Z,14.58
2023-03-13T01:51:55.446Z,14.79
2023-03-13T01:54:40.249Z,14.33
2023-03-13T01:57:08.279Z,14.00
2023-03-13T01:59:48.725Z,13.16
2023-03-13T02:02:16.757Z,12.38
2023-03-13T02:04:51.045Z,12.20
2023-03-13T02:07:25.342Z,12.50
2023-03-13T02:09:53.719Z,11.82
2023-03-13T02:12:30.864Z,11.29
2023-03-13T02:14:59.705Z,10.82
2023-03-13T02:17:29.402Z,10.96
2023-03-13T02:19:57.490Z,10.77
2023-03-13T02:22:36.000Z,11.07
2023-03-13T02:25:24.114Z,11.14
2023-03-13T02:28:03.698Z,11.32
2023-03-13T02:30:33.675Z,10.75
2023-03-13T02:33:01.932Z,11.32
2023-03-13T02:35:30.245Z,10.92
2023-03-13T02:38:03.364Z,11.03
2023-03-13T02:40:33.698Z,10.47
2023-03-13T02:43:05.488Z,10.70
2023-03-13T02:45:33.635Z,11.15
2023-03-13T02:48:01.744Z,10.63
2023-03-13T02:50:29.836Z,10.79
2023-03-13T02:53:03.484Z,10.50
2023-03-13T02:55:35.427Z,10.34
2023-03-13T02:58:03.859Z,10.56
2023-03-13T03:00:35.957Z,10.54
2023-03-13T03:03:04.143Z,10.75
2023-03-13T03:05:32.313Z,11.54
2023-03-13T03:08:00.408Z,12.63
2023-03-13T03:10:29.442Z,13.80
2023-03-13T03:12:57.469Z,15.64
2023-03-13T03:15:25.617Z,17.53
2023-03-13T03:17:53.770Z,18.64
2023-03-13T03:20:21.809Z,19.66
2023-03-13T03:22:49.878Z,20.48
2023-03-13T03:25:17.993Z,20.53
2023-03-13T03:27:46.083Z,20.18
2023-03-13T03:30:14.493Z,20.72
2023-03-13T03:32:43.340Z,21.27
2023-03-13T03:35:11.493Z,21.32
2023-03-13T03:37:39.597Z,20.69
2023-03-13T03:40:08.206Z,21.01
2023-03-13T03:42:36.584Z,20.82
2023-03-13T03:45:05.432Z,21.24
2023-03-13T03:47:33.551Z,21.72
2023-03-13T03:50:03.827Z,21.41
2023-03-13T03:52:36.241Z,21.34
2023-03-13T03:55:04.870Z,20.69
2023-03-13T03:57:33.224Z,19.80
2023-03-13T04:00:01.618Z,20.53
2023-03-13T04:02:30.497Z,20.63
2023-03-13T04:04:58.717Z,21.27
2023-03-13T04:07:32.449Z,21.95
2023-03-13T04:10:00.814Z,21.09
2023-03-13T04:12:36.263Z,20.99
2023-03-13T04:15:04.724Z,21.80
2023-03-13T04:17:33.561Z,21.61
2023-03-13T04:20:02.260Z,22.51
2023-03-13T04:22:31.656Z,21.49
2023-03-13T04:25:00.585Z,19.19
2023-03-13T04:27:30.941Z,17.95
2023-03-13T04:29:58.913Z,15.40
2023-03-13T04:32:42.040Z,13.42
2023-03-13T04:35:22.285Z,14.17
2023-03-13T04:38:09.068Z,18.16
2023-03-13T04:41:00.161Z,16.98
2023-03-13T04:43:41.895Z,22.57
2023-03-13T04:46:18.925Z,21.72
2023-03-13T04:49:08.973Z,21.81
2023-03-13T04:51:53.317Z,21.13
2023-03-13T04:54:41.582Z,22.42
2023-03-13T04:57:27.161Z,23.40
2023-03-13T05:00:14.133Z,22.51
2023-03-13T05:02:53.339Z,22.69
2023-03-13T05:05:24.179Z,25.34
2023-03-13T05:08:15.378Z,26.10
2023-03-13T05:11:02.969Z,27.09
2023-03-13T05:14:04.629Z,28.14
2023-03-13T05:16:51.385Z,28.64
2023-03-13T05:19:48.948Z,28.25
2023-03-13T05:22:42.938Z,29.27
2023-03-13T05:25:14.045Z,30.18
2023-03-13T05:28:02.295Z,29.13
2023-03-13T05:30:39.977Z,28.38
2023-03-13T05:33:28.275Z,26.76
2023-03-13T05:36:15.314Z,26.65
2023-03-13T05:39:09.438Z,25.10
2023-03-13T05:41:49.999Z,24.92
2023-03-13T05:44:40.968Z,24.74
2023-03-13T05:47:31.825Z,23.61
2023-03-13T05:50:18.594Z,24.73
2023-03-13T05:53:02.865Z,25.80
2023-03-13T05:55:42.221Z,30.89
2023-03-13T05:58:36.765Z,35.74
2023-03-13T06:01:37.170Z,41.45
2023-03-13T06:04:13.460Z,40.17
2023-03-13T06:06:42.241Z,40.23
2023-03-13T06:09:11.904Z,40.22
2023-03-13T06:11:41.779Z,40.25
2023-03-13T06:14:10.188Z,38.87
2023-03-13T06:16:58.122Z,38.81
2023-03-13T06:19:28.461Z,40.12
2023-03-13T06:21:56.677Z,42.35
2023-03-13T06:24:24.757Z,41.45
2023-03-13T06:26:52.925Z,38.15
2023-03-13T06:29:21.249Z,35.86
2023-03-13T06:31:49.276Z,35.82
2023-03-13T06:34:17.763Z,35.74
2023-03-13T06:36:45.938Z,35.77
2023-03-13T06:39:14.148Z,35.33
2023-03-13T06:41:42.178Z,36.29
2023-03-13T06:44:11.583Z,36.68
2023-03-13T06:46:39.639Z,35.09
2023-03-13T06:49:07.934Z,34.47
2023-03-13T06:51:36.518Z,32.81
2023-03-13T06:54:04.591Z,30.13
2023-03-13T06:56:32.683Z,28.73
2023-03-13T06:59:00.715Z,28.46
2023-03-13T07:01:28.928Z,28.05
2023-03-13T07:03:57.062Z,29.09
2023-03-13T07:06:25.101Z,30.15
2023-03-13T07:08:53.124Z,29.89
2023-03-13T07:11:21.287Z,31.14
2023-03-13T07:13:49.378Z,31.23
2023-03-13T07:16:18.393Z,29.55
2023-03-13T07:18:46.561Z,30.26
2023-03-13T07:21:14.848Z,30.09
2023-03-13T07:23:42.953Z,30.53
2023-03-13T07:26:12.942Z,30.32
2023-03-13T07:28:41.598Z,30.24
2023-03-13T07:31:17.585Z,29.50
2023-03-13T07:33:45.922Z,29.64
2023-03-13T07:36:15.360Z,29.48
2023-03-13T07:38:46.276Z,29.17
2023-03-13T07:41:14.755Z,29.03
2023-03-13T07:43:43.007Z,28.26
2023-03-13T07:46:13.252Z,28.23
2023-03-13T07:48:42.419Z,27.62
2023-03-13T07:51:14.744Z,27.40
2023-03-13T07:53:44.193Z,27.00
2023-03-13T07:56:13.836Z,26.68
2023-03-13T07:58:42.521Z,26.45
2023-03-13T08:01:24.318Z,24.07
2023-03-13T08:03:55.653Z,23.52
2023-03-13T08:06:24.671Z,24.37
2023-03-13T08:08:53.682Z,24.25
2023-03-13T08:11:23.255Z,24.86
2023-03-13T08:13:52.051Z,25.31
2023-03-13T08:16:27.626Z,24.53
2023-03-13T08:18:57.258Z,23.91
2023-03-13T08:21:27.040Z,22.96
2023-03-13T08:23:56.959Z,20.99
2023-03-13T08:26:28.225Z,21.05
2023-03-13T08:29:00.847Z,20.26
2023-03-13T08:31:30.869Z,18.06
2023-03-13T08:33:59.596Z,16.92
2023-03-13T08:36:32.989Z,16.95
2023-03-13T08:39:02.678Z,18.26
2023-03-13T08:41:33.967Z,19.46
2023-03-13T08:44:02.625Z,18.70
2023-03-13T08:46:31.744Z,18.17
2023-03-13T08:48:59.846Z,17.02
2023-03-13T08:51:28.506Z,15.06
2023-03-13T08:53:56.926Z,13.23
2023-03-13T08:56:26.837Z,16.35
2023-03-13T08:58:56.223Z,17.85
2023-03-13T09:01:25.973Z,19.66
2023-03-13T09:03:54.031Z,19.24
2023-03-13T09:06:22.304Z,19.50
2023-03-13T09:08:50.416Z,19.82
2023-03-13T09:11:19.892Z,18.63
2023-03-13T09:13:49.474Z,19.29
2023-03-13T09:16:23.134Z,17.92
2023-03-13T09:18:51.419Z,16.46
2023-03-13T09:21:27.318Z,15.46
2023-03-13T09:23:55.599Z,16.20
2023-03-13T09:26:23.980Z,15.98
2023-03-13T09:28:52.844Z,15.62
2023-03-13T09:31:23.221Z,14.67
2023-03-13T09:33:51.491Z,14.04
2023-03-13T09:36:22.143Z,13.40
2023-03-13T09:38:51.932Z,12.82
2023-03-13T09:41:32.097Z,13.10
2023-03-13T09:44:18.011Z,12.12
2023-03-13T09:46:50.011Z,11.82
2023-03-13T09:49:30.906Z,11.73
2023-03-13T09:52:04.019Z,11.15
2023-03-13T09:54:39.998Z,10.44
2023-03-13T09:57:10.935Z,10.06
2023-03-13T09:59:46.857Z,9.77
2023-03-13T10:02:31.829Z,9.74
2023-03-13T10:05:23.097Z,10.15
2023-03-13T10:07:51.294Z,9.68
2023-03-13T10:10:21.863Z,9.80
2023-03-13T10:12:52.287Z,10.57
2023-03-13T10:15:40.154Z,10.72
2023-03-13T10:18:17.668Z,10.49
2023-03-13T10:20:46.674Z,10.06
2023-03-13T10:23:48.619Z,9.76
2023-03-13T10:26:19.085Z,9.56
2023-03-13T10:28:48.504Z,8.47
2023-03-13T10:31:32.262Z,7.96
2023-03-13T10:34:07.926Z,8.40
2023-03-13T10:36:49.565Z,8.43
2023-03-13T10:39:19.221Z,7.67
2023-03-13T10:41:48.667Z,7.69
2023-03-13T10:44:18.524Z,7.36
2023-03-13T10:46:48.017Z,7.05
2023-03-13T10:49:23.405Z,7.49
2023-03-13T10:51:56.281Z,7.33
2023-03-13T10:54:25.526Z,6.75
2023-03-13T10:57:09.359Z,6.90
2023-03-13T10:59:43.989Z,6.79
2023-03-13T11:02:38.732Z,6.71
2023-03-13T11:05:26.309Z,7.15
2023-03-13T11:07:55.091Z,7.67
2023-03-13T11:10:30.152Z,7.59
2023-03-13T11:12:58.931Z,7.60
2023-03-13T11:15:37.731Z,7.19
2023-03-13T11:18:16.025Z,7.68
2023-03-13T11:20:45.472Z,7.57
2023-03-13T11:23:28.025Z,7.82
2023-03-13T11:26:11.596Z,7.69
2023-03-13T11:28:57.874Z,7.81
2023-03-13T11:31:32.227Z,8.25
2023-03-13T11:34:08.525Z,7.88
2023-03-13T11:36:43.776Z,7.65
2023-03-13T11:39:30.484Z,7.98
2023-03-13T11:42:18.958Z,7.88
2023-03-13T11:45:05.992Z,8.12
2023-03-13T11:47:43.344Z,7.58
2023-03-13T11:50:30.174Z,7.59
2023-03-13T11:53:52.295Z,7.67
2023-03-13T11:56:23.066Z,7.95
2023-03-13T11:59:00.953Z,7.85
2023-03-13T12:01:32.823Z,7.88
2023-03-13T12:04:05.821Z,7.57
2023-03-13T12:07:05.405Z,6.83
2023-03-13T12:09:37.603Z,7.05
2023-03-13T12:12:15.783Z,7.25
2023-03-13T12:14:47.500Z,7.13
2023-03-13T12:17:19.071Z,6.99
2023-03-13T12:20:09.919Z,6.30
2023-03-13T12:23:02.795Z,5.80
2023-03-13T12:25:36.126Z,5.16
2023-03-13T12:28:16.988Z,4.72
2023-03-13T12:30:47.850Z,4.74
2023-03-13T12:33:36.365Z,4.62
2023-03-13T12:36:14.007Z,5.64
2023-03-13T12:38:52.663Z,5.77
2023-03-13T12:42:15.517Z,5.40
2023-03-13T12:44:43.631Z,4.58
2023-03-13T12:47:33.638Z,4.10
2023-03-13T12:50:24.173Z,4.08
2023-03-13T12:53:19.077Z,4.04
2023-03-13T12:56:05.921Z,4.47
2023-03-13T12:58:48.159Z,4.75
2023-03-13T13:01:29.597Z,4.95
2023-03-13T13:04:06.241Z,4.82
2023-03-13T13:07:00.642Z,4.29
2023-03-13T13:09:30.902Z,3.89
2023-03-13T13:12:02.259Z,4.11
2023-03-13T13:14:31.370Z,4.50
2023-03-13T13:17:16.517Z,5.22
2023-03-13T13:19:46.593Z,5.29
2023-03-13T13:22:37.042Z,5.45
2023-03-13T13:25:11.328Z,5.51
2023-03-13T13:27:39.304Z,5.52
2023-03-13T13:30:19.644Z,5.40
2023-03-13T13:32:48.996Z,6.02
2023-03-13T13:35:26.060Z,6.70
2023-03-13T13:37:56.339Z,7.32
2023-03-13T13:40:29.335Z,7.30
2023-03-13T13:42:57.979Z,8.29
2023-03-13T13:46:12.483Z,8.33
2023-03-13T13:48:43.436Z,7.18
2023-03-13T13:51:11.693Z,6.76
2023-03-13T13:53:44.899Z,6.31
2023-03-13T13:56:29.786Z,6.48
2023-03-13T13:59:22.048Z,6.41
2023-03-13T14:01:52.347Z,6.43
2023-03-13T14:04:27.946Z,6.24
2023-03-13T14:06:57.909Z,5.75
2023-03-13T14:09:28.884Z,5.38
2023-03-13T14:11:57.050Z,6.20
2023-03-13T14:14:25.054Z,5.58
2023-03-13T14:16:57.050Z,5.51
2023-03-13T14:19:40.868Z,5.30
2023-03-13T14:22:10.325Z,4.82
2023-03-13T14:24:38.347Z,4.54
2023-03-13T14:27:19.492Z,4.92
2023-03-13T14:30:09.411Z,6.01
2023-03-13T14:32:38.470Z,5.71
2023-03-13T14:35:07.274Z,5.92
2023-03-13T14:37:45.171Z,6.09
2023-03-13T14:40:21.546Z,6.02
2023-03-13T14:42:51.791Z,5.88
2023-03-13T14:45:34.102Z,6.24
2023-03-13T14:48:05.798Z,6.69
2023-03-13T14:50:33.920Z,6.37
2023-03-13T14:53:05.571Z,5.75
2023-03-13T14:55:35.378Z,5.60
2023-03-13T14:58:27.827Z,5.69
2023-03-13T15:00:56.342Z,6.43
2023-03-13T15:03:28.875Z,6.35
2023-03-13T15:06:07.629Z,6.81
2023-03-13T15:08:39.787Z,6.90
2023-03-13T15:11:22.486Z,7.18
2023-03-13T15:13:50.559Z,7.08
2023-03-13T15:16:22.858Z,7.28
2023-03-13T15:18:51.768Z,7.27
2023-03-13T15:21:25.148Z,7.49
2023-03-13T15:23:56.195Z,7.14
2023-03-13T15:26:25.062Z,7.17
2023-03-13T15:28:53.415Z,7.00
2023-03-13T15:31:25.347Z,7.48
2023-03-13T15:33:58.890Z,7.21
2023-03-13T15:36:27.824Z,7.16
2023-03-13T15:38:56.388Z,7.09
2023-03-13T15:41:24.527Z,7.18
2023-03-13T15:43:52.940Z,8.03
2023-03-13T15:46:21.165Z,11.50
2023-03-13T15:48:51.614Z,7.35
2023-03-13T15:51:21.112Z,7.40
2023-03-13T15:53:49.293Z,8.14
2023-03-13T15:56:19.053Z,8.27
2023-03-13T15:58:47.625Z,7.69
2023-03-13T16:01:17.247Z,8.34
2023-03-13T16:03:45.529Z,9.21
2023-03-13T16:06:18.519Z,9.31
2023-03-13T16:08:47.046Z,11.34
2023-03-13T16:11:16.328Z,10.99
2023-03-13T16:13:44.356Z,10.48
2023-03-13T16:16:18.389Z,10.91
2023-03-13T16:18:48.179Z,11.41
2023-03-13T16:21:21.957Z,10.60
2023-03-13T16:23:50.097Z,9.83
2023-03-13T16:26:20.118Z,9.98
2023-03-13T16:28:48.358Z,9.44
2023-03-13T16:31:25.092Z,9.89
2023-03-13T16:33:54.155Z,9.69
2023-03-13T16:36:24.679Z,10.49
2023-03-13T16:38:52.799Z,10.59
2023-03-13T16:41:22.599Z,11.04
2023-03-13T16:43:50.933Z,11.26
2023-03-13T16:46:21.407Z,11.92
2023-03-13T16:48:50.303Z,12.79
2023-03-13T16:51:20.845Z,15.84
2023-03-13T16:53:50.137Z,16.91
2023-03-13T16:56:39.419Z,16.86
2023-03-13T16:59:12.634Z,19.81
2023-03-13T17:01:41.041Z,19.68
2023-03-13T17:04:09.379Z,14.97
2023-03-13T17:06:38.966Z,15.11
2023-03-13T17:09:11.905Z,14.38
2023-03-13T17:11:39.950Z,15.26
2023-03-13T17:14:08.541Z,14.01
2023-03-13T17:16:39.123Z,14.24
2023-03-13T17:19:07.692Z,13.87
2023-03-13T17:21:37.010Z,12.60
2023-03-13T17:24:07.801Z,12.91
2023-03-13T17:26:37.442Z,13.01
2023-03-13T17:29:06.127Z,13.56
2023-03-13T17:31:38.639Z,15.14
2023-03-13T17:34:07.386Z,12.54
2023-03-13T17:36:35.775Z,17.42
2023-03-13T17:39:05.746Z,30.56
2023-03-13T17:41:35.139Z,16.05
2023-03-13T17:44:07.471Z,13.96
2023-03-13T17:46:39.773Z,12.82
2023-03-13T17:49:07.893Z,12.23
2023-03-13T17:51:36.796Z,12.34
2023-03-13T17:54:04.973Z,12.65
2023-03-13T17:56:36.520Z,12.03
2023-03-13T17:59:05.935Z,12.30
2023-03-13T18:01:34.820Z,13.72
2023-03-13T18:04:03.200Z,13.88
2023-03-13T18:06:33.226Z,13.22
2023-03-13T18:09:03.056Z,13.67
2023-03-13T18:11:31.096Z,13.83
2023-03-13T18:13:59.283Z,14.32
2023-03-13T18:16:37.679Z,13.40
2023-03-13T18:19:23.908Z,13.81
2023-03-13T18:21:54.205Z,13.80
2023-03-13T18:24:22.605Z,14.91
2023-03-13T18:26:50.867Z,14.61
2023-03-13T18:29:26.389Z,13.49
2023-03-13T18:31:58.983Z,12.79
2023-03-13T18:34:27.687Z,13.30
2023-03-13T18:36:55.912Z,14.56
2023-03-13T18:39:24.033Z,15.62
2023-03-13T18:41:52.839Z,18.12
2023-03-13T18:44:21.344Z,20.07
2023-03-13T18:46:51.989Z,19.86
2023-03-13T18:49:21.787Z,18.79
2023-03-13T18:51:51.038Z,26.72
2023-03-13T18:54:19.131Z,25.10
2023-03-13T18:56:50.377Z,25.59
2023-03-13T18:59:20.833Z,33.28
2023-03-13T19:01:49.188Z,25.92
2023-03-13T19:04:18.004Z,25.49
2023-03-13T19:06:46.261Z,23.65
2023-03-13T19:09:41.602Z,24.40
2023-03-13T19:12:11.077Z,22.41
2023-03-13T19:14:39.397Z,25.67
2023-03-13T19:17:13.812Z,27.70
2023-03-13T19:19:41.823Z,25.53
2023-03-13T19:22:11.983Z,23.84
2023-03-13T19:24:40.169Z,25.79
2023-03-13T19:27:13.188Z,24.14
2023-03-13T19:29:41.332Z,22.49
2023-03-13T19:32:16.442Z,22.13
2023-03-13T19:34:44.624Z,23.69
2023-03-13T19:37:15.391Z,22.23
2023-03-13T19:39:43.546Z,21.97
2023-03-13T19:42:11.783Z,21.48
2023-03-13T19:44:40.964Z,20.67
2023-03-13T19:47:14.055Z,20.70
2023-03-13T19:49:42.128Z,20.41
2023-03-13T19:52:10.300Z,21.81
2023-03-13T19:54:38.350Z,25.73
2023-03-13T19:57:07.228Z,21.81
2023-03-13T19:59:38.829Z,21.18
2023-03-13T20:02:08.973Z,20.20
2023-03-13T20:04:37.574Z,18.83
2023-03-13T20:07:05.632Z,17.60
2023-03-13T20:09:35.492Z,21.00
2023-03-13T20:12:05.008Z,18.21
2023-03-13T20:14:33.290Z,16.86
2023-03-13T20:17:01.285Z,17.26
2023-03-13T20:19:30.084Z,18.74
2023-03-13T20:22:03.799Z,18.50
2023-03-13T20:24:33.849Z,19.78
2023-03-13T20:27:03.799Z,20.04
2023-03-13T20:29:33.283Z,20.14
2023-03-13T20:32:04.642Z,20.85
2023-03-13T20:34:32.708Z,20.15
2023-03-13T20:37:00.771Z,20.57
2023-03-13T20:39:28.966Z,21.69
2023-03-13T20:41:57.590Z,20.71
2023-03-13T20:44:25.748Z,19.16
2023-03-13T20:46:54.066Z,19.65
2023-03-13T20:49:22.910Z,19.34
2023-03-13T20:51:50.989Z,19.34
2023-03-13T20:54:19.346Z,17.69
2023-03-13T20:56:47.377Z,17.78
2023-03-13T20:59:15.476Z,17.66
2023-03-13T21:01:44.154Z,17.57
2023-03-13T21:04:12.678Z,19.19
2023-03-13T21:06:41.008Z,19.28
2023-03-13T21:09:09.004Z,18.94
2023-03-13T21:11:37.400Z,19.56
2023-03-13T21:14:05.431Z,19.34
2023-03-13T21:16:33.745Z,19.07
2023-03-13T21:19:02.096Z,19.95
2023-03-13T21:21:30.270Z,20.01
2023-03-13T21:23:58.325Z,20.58
2023-03-13T21:26:26.623Z,20.50
2023-03-13T21:28:54.686Z,20.25
2023-03-13T21:31:22.938Z,20.30
2023-03-13T21:33:51.448Z,19.77
2023-03-13T21:36:21.049Z,20.26
2023-03-13T21:38:49.799Z,21.23
2023-03-13T21:41:19.354Z,20.28
2023-03-13T21:43:47.648Z,22.10
2023-03-13T21:46:17.114Z,21.85
2023-03-13T21:51:18.558Z,22.54
2023-03-13T21:53:46.682Z,22.57
2023-03-13T21:56:15.976Z,23.03
2023-03-13T21:58:45.614Z,22.93
2023-03-13T22:01:14.396Z,22.93
2023-03-13T22:03:42.852Z,23.55
2023-03-13T22:06:14.925Z,23.30
2023-03-13T22:08:43.302Z,23.86
2023-03-13T22:11:11.469Z,25.26
2023-03-13T22:13:39.654Z,29.31
2023-03-13T22:16:11.708Z,26.73
2023-03-13T22:18:43.356Z,25.07
2023-03-13T22:21:13.079Z,22.98
2023-03-13T22:23:44.620Z,23.07
2023-03-13T22:26:13.204Z,23.53
2023-03-13T22:28:41.404Z,23.27
2023-03-13T22:31:10.079Z,22.57
2023-03-13T22:33:38.200Z,23.39
2023-03-13T22:36:07.266Z,22.71
2023-03-13T22:38:39.182Z,22.75
2023-03-13T22:41:09.006Z,22.92
2023-03-13T22:43:37.196Z,23.48
2023-03-13T22:46:07.228Z,24.30
2023-03-13T22:48:35.796Z,26.13
2023-03-13T22:51:08.451Z,27.76
2023-03-13T22:53:37.769Z,27.45
2023-03-13T22:56:06.470Z,27.52
2023-03-13T22:58:36.477Z,27.39
2023-03-13T23:01:17.649Z,26.86
2023-03-13T23:03:46.031Z,26.30
2023-03-13T23:06:19.432Z,26.15
2023-03-13T23:08:47.564Z,26.89
2023-03-13T23:11:16.292Z,26.26
2023-03-13T23:13:44.462Z,26.07
2023-03-13T23:16:13.251Z,26.14
2023-03-13T23:18:41.442Z,25.58
2023-03-13T23:21:12.009Z,24.98
2023-03-13T23:23:40.338Z,24.97
2023-03-13T23:26:10.474Z,24.26
2023-03-13T23:28:39.036Z,23.76
2023-03-13T23:31:12.173Z,23.11
2023-03-13T23:33:40.523Z,22.54
2023-03-13T23:36:10.516Z,22.49
2023-03-13T23:38:38.582Z,21.42
2023-03-13T23:41:11.119Z,20.81
2023-03-13T23:43:39.659Z,20.88
2023-03-13T23:46:21.434Z,20.11
2023-03-13T23:48:52.796Z,20.64
2023-03-13T23:51:20.925Z,20.90
2023-03-13T23:53:49.032Z,21.01
2023-03-13T23:56:17.119Z,21.21
2023-03-13T23:58:45.708Z,21.71
